Time;durP1;ratioP1;P1;durP2;ratioP2;P2;SDS_P1;SDS_P2;PMS_P1;PMS_P2;Temp;Humidity;BMP_temperature;BMP_pressure;BME280_temperature;BME280_humidity;BME280_pressure;Samples;Min_cycle;Max_cycle;Signal;HPM_P1;HPM_P2
2023/04/25 00:00:52;;;;;;;5.20;1.95;;;4.30;99.90;;;;;;5048194;28;20512;-38
2023/04/25 00:03:20;;;;;;;2.25;2.08;;;4.30;99.90;;;;;;5045939;28;20067;-38
2023/04/25 00:05:48;;;;;;;3.63;2.58;;;4.40;99.90;;;;;;5046924;28;20060;-38
2023/04/25 00:08:16;;;;;;;4.40;2.58;;;4.50;99.90;;;;;;5047288;28;20045;-38
2023/04/25 00:10:44;;;;;;;13.15;4.55;;;4.60;99.90;;;;;;5047170;28;20501;-38
2023/04/25 00:13:12;;;;;;;2.00;1.90;;;4.70;99.90;;;;;;5061926;28;20056;-38
2023/04/25 00:15:41;;;;;;;4.40;2.47;;;4.70;99.90;;;;;;5042548;28;20422;-38
2023/04/25 00:18:09;;;;;;;2.65;2.45;;;4.70;99.90;;;;;;5047160;28;20056;-38
2023/04/25 00:20:36;;;;;;;2.15;2.03;;;4.70;99.90;;;;;;5046870;28;20041;-39
2023/04/25 00:23:05;;;;;;;2.88;2.63;;;4.70;99.90;;;;;;5045885;28;20048;-40
2023/04/25 00:25:32;;;;;;;1.83;1.73;;;4.70;99.90;;;;;;5047523;28;20049;-38
2023/04/25 00:28:00;;;;;;;2.55;2.35;;;4.70;99.90;;;;;;5045861;28;20386;-38
2023/04/25 00:30:27;;;;;;;3.10;2.65;;;4.70;99.90;;;;;;5046821;28;20059;-38
2023/04/25 00:32:55;;;;;;;3.33;2.95;;;4.60;99.90;;;;;;5047611;28;20281;-39
2023/04/25 00:35:23;;;;;;;3.20;2.67;;;4.70;99.90;;;;;;5046513;28;20424;-38
2023/04/25 00:37:50;;;;;;;4.47;2.15;;;4.80;99.90;;;;;;5047407;28;20057;-39
2023/04/25 00:40:18;;;;;;;2.17;1.98;;;4.80;99.90;;;;;;5046818;28;20044;-38
2023/04/25 00:42:46;;;;;;;2.70;2.50;;;4.90;99.90;;;;;;5044442;28;20045;-40
2023/04/25 00:45:15;;;;;;;3.03;2.78;;;4.90;99.90;;;;;;5047219;28;20436;-38
2023/04/25 00:47:43;;;;;;;3.90;2.53;;;4.90;99.90;;;;;;5046386;28;20070;-39
2023/04/25 00:50:11;;;;;;;2.92;1.95;;;4.80;99.90;;;;;;5045566;28;20049;-39
2023/04/25 00:52:44;;;;;;;2.05;1.95;;;4.70;99.90;;;;;;5047233;28;20060;-39
2023/04/25 00:55:12;;;;;;;3.90;3.58;;;4.60;99.90;;;;;;5038289;28;20072;-38
2023/04/25 00:57:40;;;;;;;3.45;2.88;;;4.60;99.90;;;;;;5045564;28;20056;-39
2023/04/25 01:00:10;;;;;;;6.03;3.33;;;4.70;99.90;;;;;;5046146;28;20041;-42
2023/04/25 01:02:39;;;;;;;4.05;2.88;;;4.80;99.90;;;;;;5046259;28;20036;-40
2023/04/25 01:05:07;;;;;;;4.28;3.28;;;4.90;99.90;;;;;;5046895;28;20056;-38
2023/04/25 01:07:35;;;;;;;2.70;2.50;;;5.10;99.90;;;;;;5045973;28;20049;-38
2023/04/25 01:10:03;;;;;;;3.17;2.90;;;5.10;99.90;;;;;;5040004;28;20064;-38
2023/04/25 01:12:31;;;;;;;3.38;2.58;;;5.20;99.90;;;;;;5055675;28;20548;-42
2023/04/25 01:14:59;;;;;;;5.05;2.47;;;5.30;99.90;;;;;;5046100;28;20048;-40
2023/04/25 01:17:27;;;;;;;3.10;2.70;;;5.40;99.90;;;;;;5046318;28;20452;-38
2023/04/25 01:19:55;;;;;;;4.07;3.70;;;5.40;99.90;;;;;;5060782;28;20312;-40
2023/04/25 01:22:23;;;;;;;2.65;2.55;;;5.40;99.90;;;;;;5043527;28;20052;-37
2023/04/25 01:24:51;;;;;;;3.65;3.28;;;5.50;99.90;;;;;;5046709;28;20053;-38
2023/04/25 01:27:20;;;;;;;3.67;2.97;;;5.60;99.90;;;;;;5044610;28;20075;-39
2023/04/25 01:29:49;;;;;;;2.88;2.45;;;5.60;99.90;;;;;;5044939;28;20422;-40
2023/04/25 01:32:18;;;;;;;2.70;2.50;;;5.60;99.90;;;;;;5045287;28;20060;-41
2023/04/25 01:34:46;;;;;;;4.43;2.63;;;5.60;99.90;;;;;;5061016;28;20382;-40
2023/04/25 01:37:13;;;;;;;2.45;2.25;;;5.70;99.90;;;;;;5046210;28;20052;-40
2023/04/25 01:39:41;;;;;;;2.70;2.50;;;5.80;99.90;;;;;;5045652;28;20053;-39
2023/04/25 01:42:08;;;;;;;5.57;2.85;;;5.80;99.90;;;;;;5045726;28;20061;-40
2023/04/25 01:44:36;;;;;;;3.00;2.80;;;6.00;99.90;;;;;;5044763;28;20048;-40
2023/04/25 01:47:05;;;;;;;2.38;2.28;;;5.90;99.90;;;;;;5044144;28;20410;-39
2023/04/25 01:49:33;;;;;;;3.67;3.35;;;6.00;99.90;;;;;;5045763;28;20056;-39
2023/04/25 01:52:00;;;;;;;2.40;2.30;;;6.00;99.90;;;;;;5045333;28;20064;-40
2023/04/25 01:54:28;;;;;;;2.83;2.60;;;6.10;99.90;;;;;;5045261;28;20045;-39
2023/04/25 01:56:57;;;;;;;4.00;2.95;;;6.10;99.90;;;;;;5044012;28;20072;-39
2023/04/25 01:59:25;;;;;;;2.67;2.47;;;6.10;99.90;;;;;;5044389;28;20049;-39
2023/04/25 02:02:08;;;;;;;2.28;2.17;;;6.20;99.90;;;;;;5044279;28;20124;-39
2023/04/25 02:04:36;;;;;;;1.98;1.88;;;6.20;99.90;;;;;;5044979;28;20049;-38
2023/04/25 02:07:04;;;;;;;2.70;2.53;;;6.30;99.90;;;;;;5039945;28;20045;-38
2023/04/25 02:09:42;;;;;;;2.70;2.50;;;6.30;99.90;;;;;;5025045;28;20054;-39
2023/04/25 02:12:12;;;;;;;2.42;2.25;;;6.30;99.90;;;;;;5049718;28;20056;-38
2023/04/25 02:14:54;;;;;;;4.60;3.45;;;6.30;99.90;;;;;;5035930;28;20044;-38
2023/04/25 02:17:55;;;;;;;8.00;2.42;;;6.30;99.90;;;;;;5034808;28;20057;-39
2023/04/25 02:20:24;;;;;;;3.15;2.45;;;6.20;99.90;;;;;;5045177;28;20041;-38
2023/04/25 02:22:51;;;;;;;2.92;2.72;;;6.20;99.90;;;;;;5051114;28;20595;-40
2023/04/25 02:25:20;;;;;;;2.75;2.47;;;6.20;99.90;;;;;;5047069;28;20053;-37
2023/04/25 02:27:48;;;;;;;3.78;2.58;;;6.30;99.90;;;;;;5062186;28;20041;-36
2023/04/25 02:30:16;;;;;;;2.40;2.20;;;6.30;99.90;;;;;;5049622;28;20053;-36
2023/04/25 02:32:43;;;;;;;2.10;1.90;;;6.30;99.90;;;;;;5050664;28;20056;-39
2023/04/25 02:35:11;;;;;;;5.95;2.42;;;6.30;99.90;;;;;;5051806;28;20075;-38
2023/04/25 02:37:39;;;;;;;2.75;2.40;;;6.30;99.90;;;;;;5051941;28;20060;-39
2023/04/25 02:40:07;;;;;;;4.03;2.33;;;6.30;99.90;;;;;;5049056;28;20056;-38
2023/04/25 02:42:35;;;;;;;2.10;2.00;;;6.20;99.90;;;;;;5048153;28;20044;-39
2023/04/25 02:45:03;;;;;;;2.88;2.67;;;6.20;99.90;;;;;;5049754;28;20048;-38
2023/04/25 02:47:31;;;;;;;2.88;2.67;;;6.30;99.90;;;;;;5038122;28;20041;-38
2023/04/25 02:49:59;;;;;;;4.43;2.28;;;6.20;99.90;;;;;;5029082;28;20054;-38
2023/04/25 02:52:26;;;;;;;2.83;2.63;;;6.20;99.90;;;;;;5045958;28;20481;-38
2023/04/25 02:55:02;;;;;;;2.10;2.00;;;6.20;99.90;;;;;;5045597;28;20036;-43
2023/04/25 02:57:30;;;;;;;2.42;2.33;;;6.30;99.90;;;;;;5047551;28;20056;-38
2023/04/25 02:59:58;;;;;;;2.88;2.67;;;6.20;99.90;;;;;;5063333;28;20049;-38
2023/04/25 03:02:26;;;;;;;3.80;2.42;;;6.20;99.90;;;;;;5048705;28;20060;-38
2023/04/25 03:04:53;;;;;;;7.45;2.22;;;6.30;99.90;;;;;;5047984;28;20049;-39
2023/04/25 03:07:21;;;;;;;3.08;1.98;;;6.20;99.90;;;;;;5063310;28;20540;-39
2023/04/25 03:09:49;;;;;;;2.67;2.40;;;6.20;99.90;;;;;;5063790;28;20413;-39
2023/04/25 03:12:16;;;;;;;2.90;2.70;;;6.40;99.90;;;;;;5046028;28;20568;-38
2023/04/25 03:14:44;;;;;;;2.22;2.08;;;6.30;99.90;;;;;;5048515;28;20052;-38
2023/04/25 03:17:11;;;;;;;5.43;3.22;;;6.40;99.90;;;;;;5063248;28;20053;-38
2023/04/25 03:19:39;;;;;;;2.70;2.10;;;6.30;99.90;;;;;;5046923;28;20037;-39
2023/04/25 03:22:06;;;;;;;6.82;2.00;;;6.30;99.90;;;;;;5048476;28;20044;-38
2023/04/25 03:24:36;;;;;;;2.72;2.42;;;6.30;99.90;;;;;;5063145;28;20253;-38
2023/04/25 03:27:04;;;;;;;2.83;1.92;;;6.30;99.90;;;;;;5047671;28;20077;-39
2023/04/25 03:29:31;;;;;;;3.13;2.25;;;6.30;99.90;;;;;;5045755;28;20060;-38
2023/04/25 03:32:02;;;;;;;3.75;3.45;;;6.30;99.90;;;;;;5046630;28;20424;-40
2023/04/25 03:34:30;;;;;;;2.17;2.05;;;6.40;99.90;;;;;;5063210;28;20057;-38
2023/04/25 03:36:58;;;;;;;2.25;2.10;;;6.40;99.90;;;;;;5063506;28;20057;-38
2023/04/25 03:39:25;;;;;;;2.13;2.03;;;6.50;99.90;;;;;;5045516;28;20577;-38
2023/04/25 03:41:53;;;;;;;2.53;2.33;;;6.50;99.90;;;;;;5048385;28;20040;-38
2023/04/25 03:44:21;;;;;;;2.75;2.55;;;6.70;99.90;;;;;;5061590;28;20533;-38
2023/04/25 03:46:48;;;;;;;2.30;2.13;;;6.60;99.90;;;;;;5046190;28;20047;-39
2023/04/25 03:49:16;;;;;;;2.95;2.72;;;6.70;99.90;;;;;;5046186;28;20057;-39
2023/04/25 03:52:03;;;;;;;2.20;2.00;;;6.60;99.90;;;;;;5061849;28;20053;-38
2023/04/25 03:54:36;;;;;;;2.72;2.53;;;6.50;99.90;;;;;;5046173;28;20045;-40
2023/04/25 03:57:13;;;;;;;6.18;2.50;;;6.50;99.90;;;;;;5062788;28;20060;-38
2023/04/25 03:59:42;;;;;;;2.38;2.17;;;6.40;99.90;;;;;;5047511;28;20581;-39
2023/04/25 04:02:12;;;;;;;2.78;2.60;;;6.30;99.90;;;;;;5038562;28;20588;-37
2023/04/25 04:04:41;;;;;;;5.13;2.63;;;6.20;99.90;;;;;;5046699;28;20132;-37
2023/04/25 04:07:10;;;;;;;7.10;3.33;;;6.10;99.90;;;;;;5063253;28;20037;-37
2023/04/25 04:09:40;;;;;;;2.38;2.20;;;5.80;99.90;;;;;;5045388;28;20063;-38
2023/04/25 04:12:13;;;;;;;3.08;2.88;;;5.70;99.90;;;;;;5044570;28;20505;-37
2023/04/25 04:14:41;;;;;;;2.28;2.15;;;5.60;99.90;;;;;;5045703;28;20052;-37
2023/04/25 04:17:10;;;;;;;2.13;1.85;;;5.60;99.90;;;;;;5046256;28;20509;-38
2023/04/25 04:19:37;;;;;;;5.15;2.22;;;5.50;99.90;;;;;;5061894;28;20037;-38
2023/04/25 04:22:11;;;;;;;3.33;2.22;;;5.40;99.90;;;;;;5061629;28;20553;-37
2023/04/25 04:24:40;;;;;;;2.13;1.92;;;5.40;99.90;;;;;;5062757;28;20053;-37
2023/04/25 04:27:10;;;;;;;2.28;2.13;;;5.40;99.90;;;;;;5061670;28;20533;-38
2023/04/25 04:29:46;;;;;;;4.93;2.97;;;5.30;99.90;;;;;;5051444;28;20053;-38
2023/04/25 04:32:19;;;;;;;2.63;2.42;;;5.40;99.90;;;;;;5045166;28;20049;-38
2023/04/25 04:34:47;;;;;;;4.15;2.35;;;5.30;99.90;;;;;;5061788;28;20049;-37
2023/04/25 04:37:16;;;;;;;2.30;2.10;;;5.40;99.90;;;;;;5044456;28;20429;-37
2023/04/25 04:39:45;;;;;;;1.85;1.75;;;5.40;99.90;;;;;;5045143;28;20049;-37
2023/04/25 04:42:24;;;;;;;2.15;1.95;;;5.40;99.90;;;;;;5058384;28;20049;-39
2023/04/25 04:45:27;;;;;;;2.72;2.50;;;5.40;99.90;;;;;;4983973;28;20058;-38
2023/04/25 04:48:24;;;;;;;2.92;2.35;;;5.50;99.90;;;;;;5032377;28;20390;-38
2023/04/25 04:51:16;;;;;;;;;;;5.60;99.90;;;;;;5050959;28;20394;-38
2023/04/25 04:53:46;;;;;;;1.92;1.73;;;5.70;99.90;;;;;;5044951;28;19921;-37
2023/04/25 04:56:36;;;;;;;2.80;2.63;;;5.80;99.90;;;;;;5035698;28;20293;-37
2023/04/25 04:59:36;;;;;;;2.33;2.15;;;5.80;99.90;;;;;;5020416;28;20045;-38
2023/04/25 05:02:39;;;;;;;2.22;2.03;;;5.90;99.90;;;;;;5046226;28;20066;-38
2023/04/25 05:05:17;;;;;;;2.47;2.33;;;6.00;99.90;;;;;;5046887;28;20056;-38
2023/04/25 05:08:14;;;;;;;2.25;2.05;;;6.00;99.90;;;;;;5007228;28;20042;-37
2023/04/25 05:10:52;;;;;;;2.97;2.78;;;6.10;99.90;;;;;;5043833;28;20417;-39
2023/04/25 05:13:30;;;;;;;4.25;2.38;;;6.00;99.90;;;;;;5045237;28;20052;-40
2023/04/25 05:16:12;;;;;;;2.80;2.60;;;6.00;99.90;;;;;;5045848;28;20049;-38
2023/04/25 05:19:00;;;;;;;5.30;2.47;;;5.90;99.90;;;;;;5039728;28;20041;-38
2023/04/25 05:21:47;;;;;;;6.88;1.88;;;6.00;99.90;;;;;;5045324;28;20063;-38
2023/04/25 05:24:34;;;;;;;2.55;2.35;;;5.90;99.90;;;;;;5042859;28;20060;-37
2023/04/25 05:27:20;;;;;;;3.38;3.08;;;5.90;99.90;;;;;;5044834;28;20056;-38
2023/04/25 05:30:16;;;;;;;3.85;3.55;;;5.90;99.90;;;;;;5044607;28;20053;-37
2023/04/25 05:33:01;;;;;;;3.17;2.28;;;5.90;99.90;;;;;;5045598;28;20052;-37
2023/04/25 05:35:29;;;;;;;3.45;3.20;;;6.00;99.90;;;;;;5040556;28;20421;-38
2023/04/25 05:37:56;;;;;;;3.17;2.85;;;6.00;99.90;;;;;;5045818;28;20057;-38
2023/04/25 05:40:37;;;;;;;2.83;2.30;;;6.10;99.90;;;;;;5051550;28;20082;-37
2023/04/25 05:43:12;;;;;;;3.17;2.90;;;6.10;99.90;;;;;;5041908;28;20421;-38
2023/04/25 05:46:09;;;;;;;2.85;2.65;;;6.20;99.90;;;;;;5044455;28;20037;-37
2023/04/25 05:48:54;;;;;;;2.50;2.30;;;6.20;99.90;;;;;;5042323;28;20056;-38
2023/04/25 05:51:38;;;;;;;6.43;2.60;;;6.30;99.90;;;;;;5043918;28;20041;-37
2023/04/25 05:54:26;;;;;;;1.80;1.70;;;6.30;99.90;;;;;;5059424;28;20055;-37
2023/04/25 05:56:57;;;;;;;2.97;2.42;;;6.30;99.90;;;;;;5044512;28;20056;-37
2023/04/25 05:59:25;;;;;;;2.45;2.33;;;6.30;99.90;;;;;;5044478;28;20053;-37
2023/04/25 06:01:52;;;;;;;7.78;3.58;;;6.20;99.90;;;;;;5045099;28;20084;-40
2023/04/25 06:04:21;;;;;;;2.40;2.20;;;6.20;99.90;;;;;;5043858;28;20406;-38
2023/04/25 06:06:49;;;;;;;2.70;2.35;;;6.20;99.90;;;;;;5045192;28;20041;-38
2023/04/25 06:09:16;;;;;;;2.78;2.58;;;6.20;99.90;;;;;;5060497;28;20068;-40
2023/04/25 06:11:44;;;;;;;2.70;2.50;;;6.20;99.90;;;;;;5060620;28;20041;-38
2023/04/25 06:14:12;;;;;;;3.42;3.22;;;6.20;99.90;;;;;;5043130;28;20436;-39
2023/04/25 06:16:46;;;;;;;4.32;2.20;;;6.30;99.90;;;;;;5043739;28;20064;-38
2023/04/25 06:19:13;;;;;;;3.22;1.98;;;6.30;99.90;;;;;;5044566;28;20040;-37
2023/04/25 06:21:43;;;;;;;2.35;2.20;;;6.30;99.90;;;;;;5043555;28;20061;-38
2023/04/25 06:24:10;;;;;;;4.32;2.53;;;6.40;99.90;;;;;;5058253;28;20045;-37
2023/04/25 06:26:39;;;;;;;4.03;3.72;;;6.50;99.90;;;;;;5043599;28;20037;-37
2023/04/25 06:29:07;;;;;;;3.00;2.70;;;7.50;99.90;;;;;;5044325;28;20088;-39
2023/04/25 06:31:35;;;;;;;2.83;2.63;;;7.50;99.90;;;;;;5057879;28;20527;-38
2023/04/25 06:34:02;;;;;;;2.95;2.15;;;7.10;99.90;;;;;;5057416;28;20057;-38
2023/04/25 06:36:32;;;;;;;2.70;2.00;;;7.00;99.90;;;;;;5040756;28;20094;-38
2023/04/25 06:39:05;;;;;;;3.30;2.22;;;7.00;99.90;;;;;;5039985;28;20052;-38
2023/04/25 06:41:33;;;;;;;6.38;3.03;;;6.90;99.90;;;;;;5040260;28;20580;-39
2023/04/25 06:44:02;;;;;;;2.50;2.10;;;6.80;99.90;;;;;;5039319;28;20501;-39
2023/04/25 06:46:39;;;;;;;2.67;2.47;;;6.70;99.90;;;;;;5040180;28;20048;-38
2023/04/25 06:49:06;;;;;;;4.70;2.85;;;6.80;99.90;;;;;;5041922;28;21296;-38
2023/04/25 06:51:34;;;;;;;3.83;3.20;;;6.80;99.90;;;;;;5042161;28;20049;-38
2023/04/25 06:54:03;;;;;;;4.90;2.45;;;7.00;99.90;;;;;;5056519;28;20053;-41
2023/04/25 06:56:40;;;;;;;2.65;2.10;;;7.20;99.90;;;;;;5039952;28;20041;-37
2023/04/25 06:59:13;;;;;;;2.30;2.10;;;7.50;99.90;;;;;;5056547;28;20520;-40
2023/04/25 07:01:42;;;;;;;3.40;2.55;;;7.30;99.90;;;;;;5040349;28;20060;-39
2023/04/25 07:04:15;;;;;;;3.15;2.58;;;7.10;99.90;;;;;;5040180;28;20045;-44
2023/04/25 07:06:50;;;;;;;3.47;2.63;;;6.80;99.90;;;;;;5056667;28;20048;-44
2023/04/25 07:09:23;;;;;;;4.57;2.25;;;6.40;99.90;;;;;;5040690;28;20513;-44
2023/04/25 07:11:51;;;;;;;2.67;2.47;;;6.20;99.90;;;;;;5039895;28;20056;-38
2023/04/25 07:14:19;;;;;;;3.15;2.83;;;6.10;99.90;;;;;;5044594;28;20391;-40
2023/04/25 07:16:46;;;;;;;6.55;3.72;;;6.00;99.90;;;;;;5046242;28;20064;-39
2023/04/25 07:19:14;;;;;;;3.35;2.55;;;5.90;99.90;;;;;;5045885;28;20037;-39
2023/04/25 07:21:41;;;;;;;3.28;2.28;;;5.90;99.90;;;;;;5043681;28;20414;-38
2023/04/25 07:24:11;;;;;;;3.80;2.10;;;5.90;99.90;;;;;;5044345;28;20532;-41
2023/04/25 07:26:42;;;;;;;;;;;5.90;99.90;;;;;;5045767;28;20493;-46
2023/04/25 07:29:17;;;;;;;2.35;2.15;;;6.00;99.90;;;;;;5043410;28;19931;-38
2023/04/25 07:31:45;;;;;;;2.03;1.90;;;6.10;99.90;;;;;;5045212;28;20217;-42
2023/04/25 07:34:13;;;;;;;1.98;1.80;;;6.70;99.90;;;;;;5045789;28;20052;-49
2023/04/25 07:36:40;;;;;;;5.57;3.92;;;6.50;99.90;;;;;;5060735;28;20060;-43
2023/04/25 07:39:09;;;;;;;2.47;2.28;;;6.50;99.90;;;;;;5044420;28;20053;-46
2023/04/25 07:41:36;;;;;;;2.65;2.40;;;6.50;99.90;;;;;;5043381;28;20049;-49
2023/04/25 07:44:04;;;;;;;2.75;2.53;;;6.50;99.90;;;;;;5044001;28;20083;-41
2023/04/25 07:46:34;;;;;;;10.40;2.47;;;7.00;99.90;;;;;;5059752;28;20045;-48
2023/04/25 07:49:07;;;;;;;6.80;2.63;;;7.20;99.90;;;;;;5043757;28;20497;-41
2023/04/25 07:51:35;;;;;;;2.90;2.70;;;7.30;99.90;;;;;;5043525;28;20056;-39
2023/04/25 07:54:08;;;;;;;2.40;2.20;;;7.30;99.90;;;;;;5043507;28;20497;-41
2023/04/25 07:56:41;;;;;;;3.15;2.00;;;8.10;99.90;;;;;;5059138;28;20053;-40
2023/04/25 07:59:20;;;;;;;2.88;2.45;;;8.80;99.90;;;;;;5042880;28;20045;-41
2023/04/25 08:01:47;;;;;;;3.30;2.50;;;9.60;99.90;;;;;;5060193;28;20059;-44
2023/04/25 08:04:16;;;;;;;6.93;3.88;;;9.80;99.90;;;;;;5042692;28;20049;-44
2023/04/25 08:06:53;;;;;;;7.28;3.63;;;9.30;99.90;;;;;;5059543;28;20063;-49
2023/04/25 08:09:25;;;;;;;2.47;2.13;;;8.40;99.90;;;;;;5043446;28;20092;-39
2023/04/25 08:11:53;;;;;;;4.03;3.05;;;8.10;99.90;;;;;;5059502;28;20049;-40
2023/04/25 08:14:27;;;;;;;2.22;2.03;;;8.10;99.90;;;;;;5043598;28;20057;-42
2023/04/25 08:16:54;;;;;;;3.55;3.17;;;7.90;99.90;;;;;;5043994;28;20071;-41
2023/04/25 08:19:22;;;;;;;2.28;2.10;;;7.50;99.90;;;;;;5060842;28;20060;-41
2023/04/25 08:21:51;;;;;;;4.22;2.22;;;7.30;99.90;;;;;;5060059;28;20045;-40
2023/04/25 08:24:25;;;;;;;5.35;2.08;;;7.40;99.90;;;;;;5058037;28;20053;-53
2023/04/25 08:26:53;;;;;;;1.90;1.80;;;7.70;99.90;;;;;;5041999;28;20071;-41
2023/04/25 08:29:25;;;;;;;2.33;2.10;;;8.50;99.90;;;;;;5041988;28;20394;-39
2023/04/25 08:31:53;;;;;;;2.33;2.10;;;9.40;99.90;;;;;;5059469;28;20052;-39
2023/04/25 08:34:21;;;;;;;2.05;1.95;;;10.00;99.90;;;;;;5042809;28;20078;-41
2023/04/25 08:36:50;;;;;;;4.30;2.33;;;10.10;99.90;;;;;;5059381;28;20063;-40
2023/04/25 08:39:23;;;;;;;2.60;1.85;;;9.90;99.90;;;;;;5059203;28;20049;-38
2023/04/25 08:42:11;;;;;;;2.00;1.70;;;10.40;99.90;;;;;;5044158;28;20052;-40
2023/04/25 08:44:38;;;;;;;3.53;2.90;;;10.40;99.90;;;;;;5041544;28;20041;-55
2023/04/25 08:47:06;;;;;;;5.03;2.20;;;9.60;99.90;;;;;;5044655;28;20037;-39
2023/04/25 08:49:55;;;;;;;1.85;1.70;;;9.50;99.90;;;;;;5045313;28;20513;-40
2023/04/25 08:52:27;;;;;;;2.42;2.00;;;10.50;99.90;;;;;;5036154;28;20412;-38
2023/04/25 08:54:56;;;;;;;3.08;2.78;;;10.60;99.90;;;;;;5044702;28;20049;-40
2023/04/25 08:57:25;;;;;;;3.97;2.50;;;9.80;99.90;;;;;;5043108;28;20064;-53
2023/04/25 08:59:53;;;;;;;3.38;2.80;;;9.20;99.90;;;;;;5043285;28;20049;-46
2023/04/25 09:02:24;;;;;;;2.00;1.80;;;9.60;99.90;;;;;;5059773;28;20049;-38
2023/04/25 09:04:55;;;;;;;3.03;1.60;;;9.50;99.90;;;;;;5043679;28;20049;-40
2023/04/25 09:07:23;;;;;;;2.25;2.05;;;9.60;99.90;;;;;;5042957;28;20304;-39
2023/04/25 09:09:50;;;;;;;1.90;1.80;;;10.20;99.90;;;;;;5045634;28;20059;-43
2023/04/25 09:12:21;;;;;;;4.97;2.30;;;10.00;99.90;;;;;;5075394;28;20056;-41
2023/04/25 09:15:12;;;;;;;1.80;1.67;;;10.00;99.90;;;;;;5043034;28;20071;-39
2023/04/25 09:17:56;;;;;;;1.88;1.77;;;10.40;99.90;;;;;;5043189;28;20056;-39
2023/04/25 09:20:28;;;;;;;3.25;1.70;;;10.90;99.90;;;;;;5044477;28;20045;-45
2023/04/25 09:23:03;;;;;;;3.28;2.08;;;10.80;99.90;;;;;;5042842;28;20048;-39
2023/04/25 09:25:39;;;;;;;2.10;1.73;;;10.40;99.90;;;;;;5042816;28;20053;-44
2023/04/25 09:28:09;;;;;;;1.77;1.67;;;10.10;99.90;;;;;;5057733;28;20052;-44
2023/04/25 09:30:37;;;;;;;1.88;1.77;;;9.90;99.90;;;;;;5044108;28;20267;-46
2023/04/25 09:33:12;;;;;;;2.25;2.05;;;9.40;99.90;;;;;;5044727;28;20048;-50
2023/04/25 09:35:45;;;;;;;5.57;2.40;;;9.30;99.90;;;;;;5042991;28;20421;-41
2023/04/25 09:38:24;;;;;;;4.22;2.33;;;9.30;99.90;;;;;;5050754;28;20057;-47
2023/04/25 09:41:23;;;;;;;4.10;2.47;;;9.30;99.90;;;;;;5043013;28;20060;-48
2023/04/25 09:43:51;;;;;;;2.25;2.00;;;9.50;99.90;;;;;;5073764;28;20417;-56
2023/04/25 09:46:20;;;;;;;2.38;2.17;;;9.50;99.90;;;;;;5041999;28;20060;-54
2023/04/25 09:48:53;;;;;;;2.05;1.73;;;10.00;99.90;;;;;;5044412;28;20345;-54
2023/04/25 09:51:35;;;;;;;3.35;3.05;;;10.10;99.90;;;;;;5058692;28;20060;-53
2023/04/25 09:54:05;;;;;;;3.10;2.90;;;10.40;99.90;;;;;;5055387;28;20056;-53
2023/04/25 09:56:37;;;;;;;4.70;2.92;;;10.30;99.90;;;;;;5042219;28;20041;-49
2023/04/25 09:59:08;;;;;;;1.52;1.42;;;9.80;99.90;;;;;;5043210;28;20382;-38
2023/04/25 10:01:40;;;;;;;2.33;2.13;;;9.40;99.90;;;;;;5058713;28;20398;-50
2023/04/25 10:04:15;;;;;;;4.15;2.00;;;9.30;99.90;;;;;;5059255;28;20045;-56
2023/04/25 10:06:53;;;;;;;1.77;1.67;;;9.60;99.90;;;;;;5042732;28;20045;-52
2023/04/25 10:09:23;;;;;;;1.90;1.80;;;9.70;99.90;;;;;;5059380;28;20056;-51
2023/04/25 10:11:51;;;;;;;2.08;1.73;;;10.20;99.90;;;;;;5044285;28;20044;-51
2023/04/25 10:14:19;;;;;;;5.57;1.73;;;10.20;99.90;;;;;;5042713;28;20456;-44
2023/04/25 10:16:47;;;;;;;3.10;1.80;;;10.10;99.90;;;;;;5044136;28;20059;-43
2023/04/25 10:19:16;;;;;;;2.45;2.25;;;10.10;99.90;;;;;;5043086;28;20075;-52
2023/04/25 10:21:51;;;;;;;2.17;1.92;;;10.00;99.90;;;;;;5040132;28;20056;-45
2023/04/25 10:24:20;;;;;;;5.40;1.50;;;9.90;99.90;;;;;;5040968;28;20045;-43
2023/04/25 10:26:48;;;;;;;1.70;1.58;;;9.90;99.90;;;;;;5043031;28;20041;-42
2023/04/25 10:29:24;;;;;;;7.38;1.98;;;9.80;99.90;;;;;;5043202;28;20057;-41
2023/04/25 10:31:52;;;;;;;3.58;1.92;;;9.70;99.90;;;;;;5042483;28;20517;-50
2023/04/25 10:34:24;;;;;;;4.35;2.60;;;10.20;99.90;;;;;;5043677;28;20059;-42
2023/04/25 10:36:52;;;;;;;5.13;2.25;;;10.40;99.90;;;;;;5042913;28;20064;-45
2023/04/25 10:39:26;;;;;;;2.80;2.08;;;10.40;99.90;;;;;;5043359;28;20037;-47
2023/04/25 10:41:57;;;;;;;3.88;2.70;;;10.50;99.90;;;;;;5043095;28;20433;-50
2023/04/25 10:44:29;;;;;;;1.85;1.52;;;10.90;99.90;;;;;;5040882;28;20485;-56
2023/04/25 10:46:59;;;;;;;2.40;2.20;;;11.20;99.90;;;;;;5042614;28;20052;-47
2023/04/25 10:49:42;;;;;;;5.28;1.95;;;11.00;99.90;;;;;;5047506;28;20489;-44
2023/04/25 10:52:14;;;;;;;1.88;1.75;;;10.80;99.90;;;;;;5043031;28;20049;-41
2023/04/25 10:54:52;;;;;;;2.80;2.20;;;10.60;99.90;;;;;;5046815;28;20585;-40
2023/04/25 10:57:40;;;;;;;3.45;2.60;;;10.70;99.90;;;;;;5046891;28;20064;-41
2023/04/25 11:00:14;;;;;;;1.55;1.45;;;10.60;99.90;;;;;;5044178;28;20053;-48
2023/04/25 11:02:50;;;;;;;1.95;1.83;;;10.40;99.90;;;;;;5041342;28;20063;-52
2023/04/25 11:05:35;;;;;;;2.55;1.20;;;10.50;99.90;;;;;;5048182;28;20060;-39
2023/04/25 11:08:38;;;;;;;3.95;1.70;;;10.70;99.90;;;;;;5045963;28;20265;-48
2023/04/25 11:11:05;;;;;;;1.77;1.67;;;10.90;99.90;;;;;;5047001;28;20053;-40
2023/04/25 11:13:33;;;;;;;1.65;1.55;;;10.90;99.90;;;;;;5046150;28;20052;-46
2023/04/25 11:16:00;;;;;;;2.83;2.10;;;11.10;99.90;;;;;;5047266;28;20037;-48
2023/04/25 11:18:43;;;;;;;2.95;2.08;;;11.30;99.90;;;;;;5039003;28;20041;-36
2023/04/25 11:21:11;;;;;;;2.53;2.05;;;11.30;99.90;;;;;;5047439;28;20056;-50
2023/04/25 11:23:39;;;;;;;1.58;1.48;;;11.10;99.90;;;;;;5046262;28;20580;-41
2023/04/25 11:26:07;;;;;;;1.65;1.55;;;10.80;99.90;;;;;;5047165;28;20064;-43
2023/04/25 11:28:34;;;;;;;5.22;1.80;;;10.60;99.90;;;;;;5045357;28;20049;-50
2023/04/25 11:31:04;;;;;;;4.30;2.10;;;10.30;99.90;;;;;;5046396;28;20052;-54
2023/04/25 11:33:31;;;;;;;2.65;1.85;;;9.30;99.90;;;;;;5046886;28;20045;-55
2023/04/25 11:35:59;;;;;;;1.75;1.65;;;8.40;99.90;;;;;;5031760;28;20049;-42
2023/04/25 11:38:27;;;;;;;4.35;2.08;;;7.90;99.90;;;;;;5025987;28;20312;-54
2023/04/25 11:40:56;;;;;;;2.50;1.70;;;7.20;99.90;;;;;;5027096;28;20205;-45
2023/04/25 11:43:25;;;;;;;1.70;1.60;;;6.70;99.90;;;;;;5040013;28;20501;-45
2023/04/25 11:45:53;;;;;;;3.92;2.33;;;6.40;99.90;;;;;;5051820;28;20057;-48
2023/04/25 11:48:21;;;;;;;3.03;2.00;;;6.10;99.90;;;;;;5060467;28;20612;-45
2023/04/25 11:50:54;;;;;;;4.65;2.58;;;6.00;99.90;;;;;;5041786;28;20053;-45
2023/04/25 11:53:21;;;;;;;2.63;2.35;;;5.90;99.90;;;;;;5026990;28;20068;-50
2023/04/25 11:55:49;;;;;;;1.73;1.63;;;5.90;99.90;;;;;;5029570;28;20053;-49
2023/04/25 11:58:19;;;;;;;1.92;1.80;;;5.90;99.90;;;;;;5027957;28;20053;-48
2023/04/25 12:00:46;;;;;;;3.15;2.88;;;6.10;99.90;;;;;;5056556;28;20053;-47
2023/04/25 12:03:18;;;;;;;2.58;1.83;;;6.20;99.90;;;;;;5042199;28;20050;-46
2023/04/25 12:05:46;;;;;;;2.05;1.83;;;6.30;99.90;;;;;;5026769;28;20053;-47
2023/04/25 12:08:16;;;;;;;2.38;2.22;;;6.40;99.90;;;;;;5025161;28;20050;-50
2023/04/25 12:10:45;;;;;;;3.20;2.95;;;6.70;99.90;;;;;;5026091;28;20465;-47
2023/04/25 12:13:24;;;;;;;2.15;1.98;;;6.80;99.90;;;;;;5025590;28;20979;-47
2023/04/25 12:15:54;;;;;;;4.22;2.10;;;6.90;99.90;;;;;;5024564;28;20049;-45
2023/04/25 12:18:27;;;;;;;2.20;2.10;;;6.90;99.90;;;;;;5026031;28;20060;-44
2023/04/25 12:20:55;;;;;;;5.03;2.80;;;7.10;99.90;;;;;;5025373;28;20049;-46
2023/04/25 12:23:30;;;;;;;5.40;2.15;;;7.50;99.90;;;;;;5026144;28;20461;-47
2023/04/25 12:25:57;;;;;;;3.05;2.30;;;7.70;99.90;;;;;;5026168;28;20061;-47
2023/04/25 12:28:27;;;;;;;7.57;2.40;;;7.60;99.90;;;;;;5042974;28;20528;-50
2023/04/25 12:30:58;;;;;;;3.08;2.35;;;7.70;99.90;;;;;;5045945;28;20052;-47
2023/04/25 12:33:28;;;;;;;3.72;2.20;;;7.80;99.90;;;;;;5045008;28;20405;-47
2023/04/25 12:35:57;;;;;;;3.63;2.10;;;7.60;99.90;;;;;;5045671;28;20517;-48
2023/04/25 12:38:28;;;;;;;2.60;2.40;;;7.60;99.90;;;;;;5027716;28;20437;-49
2023/04/25 12:40:57;;;;;;;2.42;2.22;;;7.80;99.90;;;;;;5046374;28;20049;-47
2023/04/25 12:43:25;;;;;;;2.28;2.17;;;7.70;99.90;;;;;;5044433;28;20053;-45
2023/04/25 12:45:53;;;;;;;2.85;1.88;;;7.60;99.90;;;;;;5046294;28;20051;-45
2023/04/25 12:48:22;;;;;;;2.15;1.95;;;7.60;99.90;;;;;;5045320;28;20531;-50
2023/04/25 12:50:51;;;;;;;3.60;2.15;;;7.50;99.90;;;;;;5045143;28;20533;-56
2023/04/25 12:53:20;;;;;;;2.38;1.83;;;7.20;99.90;;;;;;5045257;28;20059;-50
2023/04/25 12:55:48;;;;;;;2.67;2.47;;;7.20;99.90;;;;;;5045750;28;20053;-50
2023/04/25 12:58:18;;;;;;;4.43;2.15;;;7.10;99.90;;;;;;5043219;28;20052;-51
2023/04/25 13:00:47;;;;;;;1.88;1.77;;;7.00;99.90;;;;;;5045109;28;20065;-46
2023/04/25 13:03:15;;;;;;;5.20;4.28;;;6.90;99.90;;;;;;5044524;28;20053;-45
2023/04/25 13:05:43;;;;;;;2.25;1.48;;;6.90;99.90;;;;;;5044796;28;20053;-46
2023/04/25 13:08:11;;;;;;;1.83;1.73;;;7.00;99.90;;;;;;5044597;28;20056;-47
2023/04/25 13:10:39;;;;;;;11.13;2.88;;;7.10;99.90;;;;;;5043755;28;20528;-51
2023/04/25 13:13:06;;;;;;;2.70;1.90;;;7.10;99.90;;;;;;5044233;28;20373;-45
2023/04/25 13:15:35;;;;;;;3.15;2.55;;;7.20;99.90;;;;;;5044604;28;20064;-47
2023/04/25 13:18:05;;;;;;;2.80;2.60;;;7.20;99.90;;;;;;5045402;28;20052;-49